createdAt,value
2019-05-17T00:01:46.871Z,39.67
2019-05-17T00:04:16.701Z,40.33
2019-05-17T00:06:47.658Z,42.93
2019-05-17T00:09:17.704Z,41.30
2019-05-17T00:11:59.611Z,40.53
2019-05-17T00:14:28.753Z,45.57
2019-05-17T00:16:58.216Z,51.13
2019-05-17T00:19:27.954Z,43.80
2019-05-17T00:22:07.451Z,44.17
2019-05-17T00:24:37.157Z,48.13
2019-05-17T00:27:06.742Z,46.50
2019-05-17T00:29:37.088Z,47.77
2019-05-17T00:32:17.107Z,45.13
2019-05-17T00:34:47.002Z,52.33
2019-05-17T00:37:17.401Z,40.73
2019-05-17T00:39:47.219Z,37.00
2019-05-17T00:42:27.713Z,38.07
2019-05-17T00:44:57.104Z,55.33
2019-05-17T00:47:26.539Z,42.03
2019-05-17T00:49:56.995Z,41.50
2019-05-17T00:52:36.973Z,38.97
2019-05-17T00:55:06.883Z,45.60
2019-05-17T00:57:36.910Z,45.33
2019-05-17T01:00:08.621Z,47.40
2019-05-17T01:02:47.047Z,38.03
2019-05-17T01:05:17.102Z,40.10
2019-05-17T01:07:48.349Z,41.13
2019-05-17T01:10:18.016Z,37.90
2019-05-17T01:12:58.441Z,44.00
2019-05-17T01:15:27.647Z,46.77
2019-05-17T01:17:56.879Z,41.93
2019-05-17T01:20:27.708Z,48.90
2019-05-17T01:23:07.609Z,48.87
2019-05-17T01:25:37.842Z,46.40
2019-05-17T01:28:07.743Z,46.80
2019-05-17T01:30:37.743Z,60.23
2019-05-17T01:33:07.139Z,44.03
2019-05-17T01:35:37.384Z,52.07
2019-05-17T01:38:07.571Z,50.00
2019-05-17T01:40:37.409Z,41.33
2019-05-17T01:43:16.678Z,52.33
2019-05-17T01:45:48.133Z,45.80
2019-05-17T01:48:17.401Z,47.67
2019-05-17T01:50:46.606Z,52.80
2019-05-17T01:53:26.893Z,47.23
2019-05-17T01:55:56.790Z,42.60
2019-05-17T01:58:27.080Z,47.77
2019-05-17T02:01:17.262Z,55.80
2019-05-17T02:03:46.902Z,45.17
2019-05-17T02:06:16.694Z,48.73
2019-05-17T02:08:47.566Z,47.73
2019-05-17T02:11:27.821Z,55.63
2019-05-17T02:13:57.328Z,54.10
2019-05-17T02:16:26.835Z,57.90
2019-05-17T02:18:58.263Z,49.73
2019-05-17T02:21:39.151Z,56.60
2019-05-17T02:24:08.750Z,53.80
2019-05-17T02:26:37.941Z,49.10
2019-05-17T02:29:07.120Z,47.37
2019-05-17T02:31:46.046Z,52.13
2019-05-17T02:34:15.695Z,52.40
2019-05-17T02:36:46.554Z,46.60
2019-05-17T02:39:16.383Z,55.17
2019-05-17T02:41:54.759Z,58.93
2019-05-17T02:44:24.125Z,58.13
2019-05-17T02:46:53.897Z,62.73
2019-05-17T02:49:23.634Z,62.53
2019-05-17T02:52:05.932Z,56.93
2019-05-17T02:54:47.222Z,49.63
2019-05-17T02:57:17.535Z,59.90
2019-05-17T02:59:47.157Z,60.50
2019-05-17T03:02:16.294Z,58.30
2019-05-17T03:05:06.195Z,64.43
2019-05-17T03:07:35.336Z,64.90
2019-05-17T03:10:20.987Z,75.83
2019-05-17T03:12:36.322Z,65.13
2019-05-17T03:15:16.150Z,137.27
2019-05-17T03:17:45.555Z,60.13
2019-05-17T03:20:16.591Z,67.13
2019-05-17T03:22:46.584Z,63.87
2019-05-17T03:25:25.573Z,68.47
2019-05-17T03:27:54.744Z,71.97
2019-05-17T03:30:27.780Z,64.00
2019-05-17T03:32:57.683Z,67.20
2019-05-17T03:35:38.349Z,68.43
2019-05-17T03:38:07.279Z,57.70
2019-05-17T03:41:03.504Z,61.60
2019-05-17T03:43:22.811Z,71.77
2019-05-17T03:45:53.369Z,60.93
2019-05-17T03:48:23.139Z,57.10
2019-05-17T03:50:57.211Z,52.97
2019-05-17T03:53:44.163Z,61.43
2019-05-17T03:56:13.337Z,59.87
2019-05-17T03:58:43.369Z,55.27
2019-05-17T04:01:14.034Z,63.43
2019-05-17T04:03:43.653Z,64.40
2019-05-17T04:06:13.446Z,50.77
2019-05-17T04:08:42.744Z,58.03
2019-05-17T04:11:22.135Z,54.67
2019-05-17T04:13:54.183Z,59.37
2019-05-17T04:16:25.656Z,58.67
2019-05-17T04:18:57.638Z,50.00
2019-05-17T04:21:27.140Z,53.43
2019-05-17T04:26:44.061Z,45.10
2019-05-17T04:29:14.055Z,45.93
2019-05-17T04:31:43.762Z,44.83
2019-05-17T04:34:22.476Z,46.77
2019-05-17T04:36:54.763Z,42.00
2019-05-17T04:39:24.516Z,40.73
2019-05-17T04:41:55.537Z,44.07
2019-05-17T04:44:25.070Z,41.60
2019-05-17T04:46:56.090Z,44.90
2019-05-17T04:49:26.387Z,44.30
2019-05-17T04:51:55.532Z,43.63
2019-05-17T04:57:08.868Z,43.97
2019-05-17T04:59:37.963Z,38.47
2019-05-17T05:02:07.119Z,42.07
2019-05-17T05:04:38.669Z,43.73
2019-05-17T05:07:08.129Z,42.30
2019-05-17T05:09:38.872Z,41.83
2019-05-17T05:12:08.206Z,43.63
2019-05-17T05:17:22.851Z,43.20
2019-05-17T05:19:54.644Z,42.47
2019-05-17T05:22:23.718Z,42.63
2019-05-17T05:25:02.331Z,32.53
2019-05-17T05:27:32.622Z,38.87
2019-05-17T05:30:03.067Z,37.83
2019-05-17T05:32:34.848Z,32.17
2019-05-17T05:37:52.601Z,32.90
2019-05-17T05:40:22.147Z,33.00
2019-05-17T05:42:51.639Z,34.40
2019-05-17T05:45:32.056Z,36.20
2019-05-17T05:48:01.827Z,35.77
2019-05-17T05:50:32.818Z,36.60
2019-05-17T05:53:04.070Z,32.63
2019-05-17T05:55:42.842Z,34.60
2019-05-17T05:58:12.656Z,32.63
2019-05-17T06:00:42.697Z,33.47
2019-05-17T06:03:12.717Z,32.80
2019-05-17T06:05:55.434Z,35.07
2019-05-17T06:08:34.599Z,33.23
2019-05-17T06:11:04.852Z,30.27
2019-05-17T06:13:34.765Z,31.43
2019-05-17T06:16:14.478Z,30.43
2019-05-17T06:18:45.146Z,32.30
2019-05-17T06:21:14.400Z,31.97
2019-05-17T06:23:43.586Z,29.87
2019-05-17T06:26:23.728Z,30.70
2019-05-17T06:28:53.230Z,25.37
2019-05-17T06:31:24.127Z,29.00
2019-05-17T06:33:54.166Z,27.03
2019-05-17T06:36:42.334Z,26.63
2019-05-17T06:39:17.536Z,30.53
2019-05-17T06:41:49.052Z,27.80
2019-05-17T06:44:21.623Z,27.70
2019-05-17T06:49:34.657Z,23.27
2019-05-17T06:52:05.902Z,21.40
2019-05-17T06:54:34.975Z,26.17
2019-05-17T06:57:13.334Z,26.53
2019-05-17T06:59:44.870Z,27.47
2019-05-17T07:02:19.734Z,26.33
2019-05-17T07:04:55.878Z,25.00
2019-05-17T07:10:11.152Z,22.10
2019-05-17T07:12:55.015Z,23.53
2019-05-17T07:15:19.819Z,25.00
2019-05-17T07:17:59.972Z,21.67
2019-05-17T07:21:10.045Z,23.63
2019-05-17T07:23:40.718Z,20.77
2019-05-17T07:33:53.327Z,19.70
2019-05-17T07:39:04.108Z,16.17
2019-05-17T07:41:33.174Z,19.13
2019-05-17T07:44:52.808Z,16.10
2019-05-17T07:48:53.289Z,14.17
2019-05-17T07:51:10.633Z,14.10
2019-05-17T07:53:54.297Z,14.60
2019-05-17T07:56:30.545Z,14.07
2019-05-17T07:59:09.416Z,13.03
2019-05-17T08:01:45.028Z,13.47
2019-05-17T08:04:13.963Z,14.33
2019-05-17T08:06:52.247Z,14.33
2019-05-17T08:15:24.092Z,10.67
2019-05-17T08:21:19.710Z,10.33
2019-05-17T08:24:42.949Z,13.17
2019-05-17T08:27:11.002Z,9.47
2019-05-17T08:29:40.484Z,7.60
2019-05-17T08:32:13.089Z,8.07
2019-05-17T08:34:55.221Z,7.90
2019-05-17T08:37:25.913Z,7.40
2019-05-17T08:40:15.934Z,8.47
2019-05-17T08:43:46.434Z,7.10
2019-05-17T08:46:19.776Z,6.50
2019-05-17T08:49:00.462Z,6.43
2019-05-17T08:51:30.658Z,5.57
2019-05-17T08:54:42.940Z,6.07
2019-05-17T09:04:42.470Z,5.83
2019-05-17T09:07:44.149Z,6.33
2019-05-17T09:10:44.191Z,5.90
2019-05-17T09:13:24.652Z,8.57
2019-05-17T09:19:40.471Z,6.43
2019-05-17T09:26:12.138Z,6.40
2019-05-17T09:28:50.596Z,6.30
2019-05-17T09:31:20.405Z,5.70
2019-05-17T09:33:51.494Z,7.53
2019-05-17T09:36:20.690Z,4.77
2019-05-17T09:39:12.534Z,4.77
2019-05-17T09:41:44.578Z,4.60
2019-05-17T09:44:16.411Z,4.03
2019-05-17T09:46:47.676Z,4.70
2019-05-17T09:49:25.800Z,4.27
2019-05-17T09:52:02.964Z,4.53
2019-05-17T09:54:42.304Z,4.00
2019-05-17T09:57:05.234Z,4.00
2019-05-17T09:59:45.344Z,7.00
2019-05-17T10:02:41.524Z,4.33
2019-05-17T10:06:03.101Z,5.13
2019-05-17T10:08:44.670Z,5.47
2019-05-17T10:11:14.131Z,4.90
2019-05-17T10:13:43.096Z,5.00
2019-05-17T10:16:13.047Z,4.97
2019-05-17T10:21:30.384Z,4.00
2019-05-17T10:24:00.255Z,3.80
2019-05-17T10:26:30.439Z,4.10
2019-05-17T10:29:15.122Z,6.03
2019-05-17T10:31:44.598Z,4.60
2019-05-17T10:34:14.109Z,6.40
2019-05-17T10:36:50.679Z,3.80
2019-05-17T10:39:29.758Z,4.20
2019-05-17T10:41:59.181Z,4.10
2019-05-17T10:44:42.650Z,3.70
2019-05-17T10:46:59.494Z,4.57
2019-05-17T10:49:40.918Z,4.20
2019-05-17T10:52:10.101Z,3.77
2019-05-17T10:55:00.341Z,4.90
2019-05-17T10:57:35.181Z,3.23
2019-05-17T11:02:50.479Z,3.27
2019-05-17T11:05:20.094Z,4.63
2019-05-17T11:07:50.441Z,3.97
2019-05-17T11:10:29.263Z,3.53
2019-05-17T11:12:59.367Z,4.43
2019-05-17T11:15:28.504Z,3.57
2019-05-17T11:17:57.907Z,4.35
2019-05-17T11:20:36.917Z,3.62
2019-05-17T11:23:08.642Z,3.40
2019-05-17T11:25:37.827Z,4.20
2019-05-17T11:28:48.910Z,3.60
2019-05-17T11:31:47.717Z,4.63
2019-05-17T11:34:18.121Z,3.60
2019-05-17T11:36:53.646Z,3.10
2019-05-17T11:42:06.849Z,3.13
2019-05-17T11:45:26.691Z,6.28
2019-05-17T11:47:33.243Z,4.57
2019-05-17T11:50:42.266Z,3.00
2019-05-17T11:53:07.800Z,3.23
2019-05-17T11:56:14.963Z,3.07
2019-05-17T11:58:59.271Z,3.57
2019-05-17T12:01:28.713Z,3.33
2019-05-17T12:25:05.416Z,2.67
2019-05-17T12:27:37.486Z,2.97
2019-05-17T12:30:41.023Z,2.90
2019-05-17T12:33:14.214Z,2.43
2019-05-17T12:36:02.665Z,3.37
2019-05-17T12:42:28.028Z,4.58
2019-05-17T12:49:25.785Z,2.70
2019-05-17T12:58:50.481Z,2.77
2019-05-17T13:01:28.419Z,3.10
2019-05-17T13:04:02.377Z,4.23
2019-05-17T13:06:33.192Z,2.77
2019-05-17T13:09:02.641Z,3.77
2019-05-17T13:11:40.993Z,2.70
2019-05-17T13:14:10.217Z,2.97
2019-05-17T13:16:39.545Z,3.27
2019-05-17T13:19:08.684Z,2.67
2019-05-17T13:21:39.502Z,3.10
2019-05-17T13:24:11.406Z,3.50
2019-05-17T13:26:40.523Z,4.27
2019-05-17T13:29:12.502Z,2.50
2019-05-17T13:31:55.946Z,3.60
2019-05-17T13:34:27.211Z,2.43
2019-05-17T13:36:56.702Z,2.30
2019-05-17T13:39:41.464Z,2.77
2019-05-17T13:42:10.502Z,2.50
2019-05-17T13:44:42.071Z,2.30
2019-05-17T13:47:11.071Z,3.83
2019-05-17T13:49:50.413Z,1.83
2019-05-17T13:52:19.913Z,2.70
2019-05-17T13:54:49.442Z,1.87
2019-05-17T13:57:18.607Z,3.33
2019-05-17T14:00:42.501Z,3.83
2019-05-17T14:03:22.059Z,2.97
2019-05-17T14:05:57.636Z,2.20
2019-05-17T14:08:27.020Z,3.17
2019-05-17T14:13:40.462Z,2.43
2019-05-17T14:16:09.674Z,2.10
2019-05-17T14:18:39.100Z,2.07
2019-05-17T14:21:19.447Z,2.10
2019-05-17T14:23:48.548Z,1.77
2019-05-17T14:26:20.044Z,2.10
2019-05-17T14:28:58.353Z,1.57
2019-05-17T14:31:52.198Z,3.27
2019-05-17T14:34:28.568Z,2.83
2019-05-17T14:36:58.044Z,3.70
2019-05-17T18:53:45.452Z,4.10
2019-05-17T18:56:14.487Z,2.90
2019-05-17T18:58:44.184Z,4.30
2019-05-17T19:01:14.008Z,2.80
2019-05-17T19:03:52.339Z,3.57
2019-05-17T19:06:21.493Z,2.97
2019-05-17T19:08:51.583Z,3.70
2019-05-17T19:11:26.076Z,2.80
2019-05-17T19:17:19.438Z,3.60
2019-05-17T19:23:33.949Z,3.77
2019-05-17T19:26:07.750Z,4.87
2019-05-17T19:28:37.137Z,4.37
2019-05-17T19:31:06.395Z,4.17
2019-05-17T19:33:45.328Z,5.83
2019-05-17T19:36:14.687Z,3.30
2019-05-17T19:38:44.607Z,2.83
2019-05-17T19:41:13.678Z,4.57
2019-05-17T19:43:51.629Z,6.17
2019-05-17T19:46:20.817Z,3.60
2019-05-17T19:48:50.225Z,4.37
2019-05-17T19:51:20.490Z,3.43
2019-05-17T19:54:16.529Z,3.97
2019-05-17T19:56:57.656Z,8.57
2019-05-17T19:59:29.423Z,3.73
2019-05-17T20:02:06.406Z,4.20
2019-05-17T20:04:59.634Z,2.90
2019-05-17T20:08:03.132Z,6.03
2019-05-17T20:10:35.178Z,3.63
2019-05-17T20:14:02.403Z,3.50
2019-05-17T20:16:15.273Z,4.10
2019-05-17T20:18:46.630Z,3.93
2019-05-17T20:21:16.102Z,3.73
2019-05-17T20:24:00.711Z,3.50
2019-05-17T20:26:31.923Z,4.40
2019-05-17T20:29:01.077Z,4.67
2019-05-17T20:31:30.457Z,4.33
2019-05-17T20:34:08.283Z,5.20
2019-05-17T20:36:37.450Z,3.23
2019-05-17T20:39:07.430Z,4.67
2019-05-17T20:41:36.547Z,4.03
2019-05-17T20:44:14.795Z,3.73
2019-05-17T20:46:43.973Z,4.30
2019-05-17T20:49:13.009Z,3.50
2019-05-17T20:51:44.701Z,3.97
2019-05-17T20:54:22.870Z,3.40
2019-05-17T20:56:51.829Z,5.83
2019-05-17T20:59:21.078Z,4.30
2019-05-17T21:01:50.130Z,4.67
2019-05-17T21:07:05.033Z,4.23
2019-05-17T21:09:34.091Z,4.77
2019-05-17T21:12:03.101Z,4.17
2019-05-17T21:14:43.842Z,3.73
2019-05-17T21:17:12.770Z,3.83
2019-05-17T21:19:43.231Z,3.53
2019-05-17T21:22:15.350Z,4.17
2019-05-17T21:24:53.587Z,3.60
2019-05-17T21:27:23.450Z,4.07
2019-05-17T21:29:52.873Z,4.53
2019-05-17T21:32:22.237Z,4.17
2019-05-17T21:35:00.442Z,3.77
2019-05-17T21:37:29.732Z,3.47
2019-05-17T21:39:59.193Z,5.70
2019-05-17T21:42:28.273Z,4.50
2019-05-17T21:45:18.658Z,4.30
2019-05-17T21:47:48.061Z,5.37
2019-05-17T21:50:18.836Z,4.13
2019-05-17T21:52:48.086Z,4.10
2019-05-17T21:55:28.554Z,6.07
2019-05-17T22:01:26.857Z,4.07
2019-05-17T22:04:03.178Z,4.63
2019-05-17T22:06:48.017Z,5.00
2019-05-17T22:09:17.107Z,4.13
2019-05-17T22:11:48.519Z,5.60
2019-05-17T22:14:20.209Z,4.37
2019-05-17T22:16:58.092Z,4.80
2019-05-17T22:19:33.181Z,4.67
2019-05-17T22:22:02.599Z,6.43
2019-05-17T22:24:34.993Z,5.17
2019-05-17T22:27:13.443Z,4.33
2019-05-17T22:29:42.376Z,4.70
2019-05-17T22:32:14.681Z,4.87
2019-05-17T22:34:43.984Z,4.80
2019-05-17T22:37:22.469Z,3.97
2019-05-17T22:39:51.493Z,5.80
2019-05-17T22:42:20.396Z,4.03
2019-05-17T22:44:51.893Z,4.67
2019-05-17T22:47:44.823Z,7.37
2019-05-17T22:50:13.946Z,4.20
2019-05-17T22:52:42.881Z,4.20
2019-05-17T22:55:12.877Z,4.43
2019-05-17T23:00:21.950Z,5.27
2019-05-17T23:02:50.851Z,4.80
2019-05-17T23:05:26.293Z,5.13
2019-05-17T23:08:05.258Z,4.53
2019-05-17T23:10:35.997Z,4.80
2019-05-17T23:13:05.570Z,4.97
2019-05-17T23:15:56.741Z,4.33
2019-05-17T23:18:25.958Z,4.70
2019-05-17T23:20:56.203Z,5.23
2019-05-17T23:23:27.959Z,4.63
2019-05-17T23:28:40.722Z,5.03
2019-05-17T23:31:09.801Z,5.33
2019-05-17T23:33:42.486Z,5.67
2019-05-17T23:36:21.167Z,5.67
2019-05-17T23:38:50.439Z,5.00
2019-05-17T23:41:19.541Z,6.93
2019-05-17T23:43:49.008Z,4.90
2019-05-17T23:49:01.728Z,5.57
2019-05-17T23:51:31.134Z,7.93
2019-05-17T23:54:00.270Z,4.40
2019-05-17T23:56:38.361Z,4.57
2019-05-17T23:59:07.538Z,5.77
